createdAt,value
2022-10-23T00:01:54.601Z,10.70
2022-10-23T00:04:29.566Z,10.87
2022-10-23T00:06:58.434Z,11.00
2022-10-23T00:09:25.389Z,10.40
2022-10-23T00:11:54.994Z,10.20
2022-10-23T00:14:24.970Z,10.30
2022-10-23T00:16:56.390Z,10.57
2022-10-23T00:19:23.249Z,10.60
2022-10-23T00:21:50.097Z,10.60
2022-10-23T00:24:16.904Z,10.23
2022-10-23T00:26:46.405Z,11.37
2022-10-23T00:29:13.186Z,9.80
2022-10-23T00:31:44.598Z,10.50
2022-10-23T00:34:11.555Z,10.40
2022-10-23T00:36:39.424Z,10.43
2022-10-23T00:39:06.885Z,10.80
2022-10-23T00:41:34.050Z,11.40
2022-10-23T00:44:29.664Z,10.80
2022-10-23T00:46:58.222Z,10.90
2022-10-23T00:49:25.608Z,11.30
2022-10-23T00:51:57.693Z,11.50
2022-10-23T00:54:33.299Z,11.27
2022-10-23T00:57:04.024Z,12.53
2022-10-23T00:59:39.013Z,10.37
2022-10-23T01:02:06.577Z,11.37
2022-10-23T01:04:36.562Z,11.77
2022-10-23T01:07:35.677Z,11.60
2022-10-23T01:10:25.296Z,9.90
2022-10-23T01:13:20.226Z,9.23
2022-10-23T01:16:08.235Z,9.40
2022-10-23T01:19:07.598Z,10.47
2022-10-23T01:21:45.633Z,10.10
2022-10-23T01:24:31.396Z,10.33
2022-10-23T01:27:13.124Z,9.90
2022-10-23T01:29:55.604Z,9.60
2022-10-23T01:32:36.538Z,9.50
2022-10-23T01:35:15.506Z,8.73
2022-10-23T01:37:56.454Z,10.90
2022-10-23T01:40:43.513Z,9.80
2022-10-23T01:43:27.132Z,8.80
2022-10-23T01:46:03.317Z,9.70
2022-10-23T01:48:32.151Z,10.17
2022-10-23T01:51:03.765Z,9.30
2022-10-23T01:53:34.578Z,8.50
2022-10-23T01:56:06.493Z,8.80
2022-10-23T01:58:37.569Z,8.30
2022-10-23T02:01:07.775Z,8.60
2022-10-23T02:03:39.347Z,10.07
2022-10-23T02:06:06.533Z,9.37
2022-10-23T02:08:33.569Z,9.70
2022-10-23T02:11:28.795Z,9.37
2022-10-23T02:14:04.498Z,10.70
2022-10-23T02:16:50.056Z,10.17
2022-10-23T02:19:58.056Z,9.30
2022-10-23T02:22:39.188Z,10.20
2022-10-23T02:25:12.790Z,10.93
2022-10-23T02:27:50.817Z,8.63
2022-10-23T02:30:19.523Z,9.60
2022-10-23T02:32:59.681Z,8.80
2022-10-23T02:35:26.804Z,9.20
2022-10-23T02:38:00.308Z,9.57
2022-10-23T02:40:42.225Z,9.33
2022-10-23T02:43:24.716Z,8.47
2022-10-23T02:46:06.735Z,9.47
2022-10-23T02:48:46.015Z,9.07
2022-10-23T02:51:45.752Z,9.00
2022-10-23T02:54:30.337Z,8.60
2022-10-23T02:57:33.331Z,10.10
2022-10-23T03:00:17.101Z,9.83
2022-10-23T03:03:30.391Z,10.13
2022-10-23T03:05:57.270Z,9.00
2022-10-23T03:08:27.194Z,10.13
2022-10-23T03:10:58.641Z,8.90
2022-10-23T03:13:25.941Z,9.53
2022-10-23T03:15:52.776Z,9.70
2022-10-23T03:18:19.570Z,9.33
2022-10-23T03:20:46.359Z,10.00
2022-10-23T03:23:14.017Z,8.70
2022-10-23T03:25:40.885Z,9.30
2022-10-23T03:28:12.369Z,9.70
2022-10-23T03:30:39.205Z,9.30
2022-10-23T03:33:05.987Z,8.83
2022-10-23T03:35:35.384Z,8.67
2022-10-23T03:38:02.283Z,10.13
2022-10-23T03:40:33.649Z,9.40
2022-10-23T03:43:00.417Z,9.13
2022-10-23T03:45:27.455Z,8.70
2022-10-23T03:47:54.331Z,8.77
2022-10-23T03:50:21.418Z,10.00
2022-10-23T03:52:50.598Z,8.60
2022-10-23T03:55:20.460Z,8.17
2022-10-23T03:57:49.479Z,8.10
2022-10-23T04:00:16.917Z,9.03
2022-10-23T04:02:44.210Z,8.60
2022-10-23T04:05:11.778Z,8.90
2022-10-23T04:07:38.577Z,9.73
2022-10-23T04:10:06.433Z,8.97
2022-10-23T04:12:36.910Z,8.70
2022-10-23T04:15:04.650Z,8.90
2022-10-23T04:17:33.983Z,9.90
2022-10-23T04:20:00.791Z,9.03
2022-10-23T04:22:28.578Z,8.90
2022-10-23T04:24:56.213Z,9.90
2022-10-23T04:27:23.272Z,9.23
2022-10-23T04:29:55.500Z,9.07
2022-10-23T04:32:25.135Z,8.87
2022-10-23T04:34:54.176Z,8.70
2022-10-23T04:37:23.073Z,8.67
2022-10-23T04:39:52.841Z,9.17
2022-10-23T04:42:20.327Z,8.77
2022-10-23T04:44:51.845Z,8.27
2022-10-23T04:47:18.862Z,8.70
2022-10-23T04:49:45.653Z,10.17
2022-10-23T04:52:15.019Z,9.10
2022-10-23T04:54:41.849Z,8.73
2022-10-23T04:57:08.718Z,8.57
2022-10-23T04:59:35.615Z,9.13
2022-10-23T05:02:02.606Z,8.40
2022-10-23T05:04:31.633Z,8.23
2022-10-23T05:06:58.515Z,8.70
2022-10-23T05:09:30.132Z,8.27
2022-10-23T05:11:59.449Z,8.60
2022-10-23T05:14:26.231Z,8.73
2022-10-23T05:17:07.383Z,9.47
2022-10-23T05:19:42.652Z,8.63
2022-10-23T05:22:11.135Z,9.40
2022-10-23T05:24:40.358Z,8.00
2022-10-23T05:27:07.256Z,8.10
2022-10-23T05:29:34.036Z,8.13
2022-10-23T05:32:05.585Z,8.10
2022-10-23T05:34:36.814Z,8.03
2022-10-23T05:37:09.592Z,8.80
2022-10-23T05:39:36.712Z,8.57
2022-10-23T05:42:03.732Z,8.03
2022-10-23T05:44:33.076Z,8.60
2022-10-23T05:47:02.822Z,10.53
2022-10-23T05:49:31.882Z,8.83
2022-10-23T05:51:58.724Z,9.50
2022-10-23T05:54:25.599Z,8.90
2022-10-23T05:56:52.429Z,9.60
2022-10-23T05:59:23.768Z,8.80
2022-10-23T06:01:50.743Z,8.47
2022-10-23T06:04:20.007Z,8.90
2022-10-23T06:06:49.575Z,8.73
2022-10-23T06:09:19.030Z,8.70
2022-10-23T06:11:51.383Z,16.23
2022-10-23T06:14:18.461Z,9.07
2022-10-23T06:16:47.607Z,9.23
2022-10-23T06:19:14.390Z,8.83
2022-10-23T06:21:45.880Z,8.90
2022-10-23T06:24:12.731Z,9.37
2022-10-23T06:26:39.515Z,9.07
2022-10-23T06:29:06.368Z,9.60
2022-10-23T06:31:35.764Z,9.77
2022-10-23T06:34:06.005Z,8.63
2022-10-23T06:36:37.893Z,10.17
2022-10-23T06:39:05.403Z,10.00
2022-10-23T06:41:41.954Z,9.70
2022-10-23T06:44:11.480Z,10.97
2022-10-23T06:46:40.823Z,9.63
2022-10-23T06:49:07.629Z,9.70
2022-10-23T06:51:34.453Z,9.60
2022-10-23T06:54:03.461Z,9.93
2022-10-23T06:56:32.596Z,9.40
2022-10-23T06:58:59.389Z,10.20
2022-10-23T07:01:26.386Z,9.80
2022-10-23T07:03:55.489Z,8.97
2022-10-23T07:06:22.350Z,9.00
2022-10-23T07:08:49.634Z,10.70
2022-10-23T07:11:16.492Z,9.33
2022-10-23T07:13:46.574Z,9.60
2022-10-23T07:16:20.270Z,9.03
2022-10-23T07:18:48.951Z,8.13
2022-10-23T07:21:18.118Z,8.13
2022-10-23T07:23:44.928Z,9.37
2022-10-23T07:26:15.630Z,8.10
2022-10-23T07:28:44.774Z,8.33
2022-10-23T07:31:14.549Z,8.90
2022-10-23T07:33:44.462Z,8.53
2022-10-23T07:36:11.324Z,8.03
2022-10-23T07:38:38.172Z,7.37
2022-10-23T07:41:08.915Z,7.30
2022-10-23T07:43:40.954Z,7.20
2022-10-23T07:46:10.949Z,7.00
2022-10-23T07:48:38.772Z,7.47
2022-10-23T07:51:11.330Z,7.80
2022-10-23T07:53:40.932Z,7.73
2022-10-23T07:56:22.797Z,7.23
2022-10-23T07:58:56.652Z,6.43
2022-10-23T08:01:39.314Z,7.30
2022-10-23T08:04:06.419Z,6.60
2022-10-23T08:06:35.942Z,6.97
2022-10-23T08:09:06.298Z,5.83
2022-10-23T08:11:35.742Z,6.00
2022-10-23T08:14:09.922Z,6.40
2022-10-23T08:16:38.387Z,6.60
2022-10-23T08:19:09.133Z,6.20
2022-10-23T08:21:38.782Z,6.20
2022-10-23T08:24:13.706Z,5.50
2022-10-23T08:26:40.583Z,5.80
2022-10-23T08:29:09.479Z,6.10
2022-10-23T08:31:40.851Z,5.47
2022-10-23T08:34:10.394Z,5.63
2022-10-23T08:36:39.157Z,5.10
2022-10-23T08:39:06.845Z,6.10
2022-10-23T08:41:45.385Z,5.03
2022-10-23T08:44:27.115Z,6.00
2022-10-23T08:47:12.575Z,5.37
2022-10-23T08:49:51.185Z,5.80
2022-10-23T08:52:27.861Z,5.73
2022-10-23T08:55:25.090Z,5.63
2022-10-23T08:58:17.051Z,5.77
2022-10-23T09:00:46.756Z,5.00
2022-10-23T09:03:14.112Z,6.00
2022-10-23T09:06:05.904Z,6.00
2022-10-23T09:09:05.592Z,5.37
2022-10-23T09:11:57.336Z,4.77
2022-10-23T09:14:48.178Z,4.50
2022-10-23T09:17:32.825Z,5.00
2022-10-23T09:20:34.636Z,5.30
2022-10-23T09:23:13.820Z,4.40
2022-10-23T09:25:46.378Z,4.80
2022-10-23T09:28:25.927Z,4.93
2022-10-23T09:31:06.634Z,4.40
2022-10-23T09:33:37.221Z,4.13
2022-10-23T09:36:08.344Z,4.07
2022-10-23T09:38:37.715Z,3.90
2022-10-23T09:41:20.429Z,4.30
2022-10-23T09:43:48.207Z,3.70
2022-10-23T09:46:15.074Z,4.10
2022-10-23T09:48:44.670Z,3.73
2022-10-23T09:51:21.239Z,3.27
2022-10-23T09:53:57.713Z,3.33
2022-10-23T09:56:34.650Z,4.10
2022-10-23T09:59:13.463Z,3.40
2022-10-23T10:01:47.824Z,3.90
2022-10-23T10:04:14.836Z,3.50
2022-10-23T10:06:42.655Z,3.37
2022-10-23T10:09:18.996Z,3.10
2022-10-23T10:11:56.568Z,3.77
2022-10-23T10:15:29.946Z,3.90
2022-10-23T10:18:17.174Z,3.40
2022-10-23T10:20:58.053Z,3.83
2022-10-23T10:24:00.494Z,4.87
2022-10-23T10:26:44.525Z,3.90
2022-10-23T10:29:41.547Z,3.80
2022-10-23T10:32:32.216Z,4.00
2022-10-23T10:35:37.175Z,4.00
2022-10-23T10:38:31.777Z,4.00
2022-10-23T10:41:19.726Z,4.00
2022-10-23T10:44:24.362Z,4.53
2022-10-23T10:47:33.822Z,4.70
2022-10-23T10:50:25.513Z,4.20
2022-10-23T10:53:04.443Z,4.33
2022-10-23T10:55:41.342Z,4.70
2022-10-23T10:58:40.509Z,4.13
2022-10-23T11:01:30.883Z,4.17
2022-10-23T11:04:15.396Z,3.90
2022-10-23T11:06:46.370Z,3.37
2022-10-23T11:09:32.172Z,3.97
2022-10-23T11:11:59.250Z,3.40
2022-10-23T11:14:29.736Z,2.87
2022-10-23T11:17:20.396Z,3.83
2022-10-23T11:20:07.832Z,3.17
2022-10-23T11:22:46.574Z,3.63
2022-10-23T11:26:02.984Z,3.13
2022-10-23T11:28:48.258Z,2.90
2022-10-23T11:31:52.580Z,2.90
2022-10-23T11:34:31.999Z,3.13
2022-10-23T11:37:01.643Z,2.97
2022-10-23T11:39:31.675Z,3.90
2022-10-23T11:42:04.531Z,2.60
2022-10-23T11:44:48.287Z,2.57
2022-10-23T11:47:40.795Z,3.23
2022-10-23T11:50:07.563Z,2.90
2022-10-23T11:53:20.926Z,3.33
2022-10-23T11:56:20.384Z,2.80
2022-10-23T11:58:49.415Z,2.40
2022-10-23T12:01:45.577Z,2.80
2022-10-23T12:04:15.662Z,3.13
2022-10-23T12:06:54.118Z,2.57
2022-10-23T12:09:31.655Z,2.80
2022-10-23T12:12:34.193Z,2.70
2022-10-23T12:15:09.874Z,2.63
2022-10-23T12:17:42.147Z,2.33
2022-10-23T12:20:12.092Z,2.17
2022-10-23T12:22:56.727Z,2.40
2022-10-23T12:26:00.593Z,2.30
2022-10-23T12:29:07.434Z,2.50
2022-10-23T12:32:24.003Z,2.30
2022-10-23T12:35:18.168Z,2.77
2022-10-23T12:37:58.273Z,2.23
2022-10-23T12:40:30.059Z,2.60
2022-10-23T12:43:00.583Z,2.97
2022-10-23T12:45:43.183Z,2.27
2022-10-23T12:48:21.455Z,3.20
2022-10-23T12:50:51.139Z,2.97
2022-10-23T12:53:23.333Z,2.60
2022-10-23T12:58:34.957Z,2.50
2022-10-23T13:01:05.234Z,2.57
2022-10-23T13:03:34.276Z,2.33
2022-10-23T13:06:04.650Z,2.37
2022-10-23T13:08:44.656Z,2.13
2022-10-23T13:11:21.289Z,2.87
2022-10-23T13:13:49.393Z,2.87
2022-10-23T13:16:29.134Z,4.10
2022-10-23T13:18:58.177Z,2.77
2022-10-23T13:21:30.104Z,2.60
2022-10-23T13:23:59.853Z,2.40
2022-10-23T13:26:45.130Z,2.97
2022-10-23T13:29:44.225Z,3.03
2022-10-23T13:32:31.366Z,2.87
2022-10-23T13:35:10.105Z,2.70
2022-10-23T13:37:48.314Z,4.07
2022-10-23T13:40:33.084Z,3.10
2022-10-23T13:43:00.129Z,3.13
2022-10-23T13:45:27.385Z,3.33
2022-10-23T13:47:57.477Z,4.10
2022-10-23T13:50:24.347Z,2.90
2022-10-23T13:52:53.730Z,3.20
2022-10-23T13:55:26.920Z,3.40
2022-10-23T13:57:53.797Z,2.70
2022-10-23T14:00:20.743Z,3.10
2022-10-23T14:02:47.911Z,3.80
2022-10-23T14:05:19.318Z,3.20
2022-10-23T14:07:46.645Z,3.10
2022-10-23T14:10:13.629Z,3.70
2022-10-23T14:12:46.804Z,3.17
2022-10-23T14:15:16.464Z,3.17
2022-10-23T14:17:46.213Z,3.87
2022-10-23T14:20:13.258Z,4.23
2022-10-23T14:22:42.798Z,4.20
2022-10-23T14:25:10.125Z,3.80
2022-10-23T14:27:36.979Z,4.30
2022-10-23T14:30:05.046Z,4.07
2022-10-23T14:32:32.184Z,4.10
2022-10-23T14:35:03.759Z,3.80
2022-10-23T14:37:31.652Z,4.40
2022-10-23T14:39:58.860Z,4.60
2022-10-23T14:42:34.001Z,4.07
2022-10-23T14:45:04.708Z,3.37
2022-10-23T14:47:32.341Z,4.07
2022-10-23T14:50:01.519Z,3.40
2022-10-23T14:52:30.718Z,3.73
2022-10-23T14:55:01.529Z,4.50
2022-10-23T14:57:30.864Z,4.40
2022-10-23T14:59:57.715Z,4.00
2022-10-23T15:02:24.544Z,3.80
2022-10-23T15:04:51.377Z,4.17
2022-10-23T15:07:18.214Z,3.80
2022-10-23T15:09:47.303Z,3.80
2022-10-23T15:12:14.092Z,4.00
2022-10-23T15:14:40.923Z,4.30
2022-10-23T15:17:15.389Z,3.80
2022-10-23T15:19:42.692Z,4.50
2022-10-23T15:22:09.669Z,3.83
2022-10-23T15:24:36.601Z,4.93
2022-10-23T15:29:39.587Z,4.80
2022-10-23T15:32:07.776Z,4.30
2022-10-23T15:34:37.630Z,4.60
2022-10-23T15:37:04.541Z,4.53
2022-10-23T15:39:38.568Z,4.50
2022-10-23T15:42:08.473Z,4.50
2022-10-23T15:44:35.343Z,4.10
2022-10-23T15:47:05.214Z,4.70
2022-10-23T15:49:32.686Z,4.07
2022-10-23T15:52:03.373Z,4.10
2022-10-23T15:54:32.799Z,3.90
2022-10-23T15:57:01.453Z,4.50
2022-10-23T15:59:32.679Z,3.83
2022-10-23T16:01:59.745Z,5.20
2022-10-23T16:04:29.130Z,5.40
2022-10-23T16:06:58.485Z,4.43
2022-10-23T16:09:27.891Z,4.50
2022-10-23T16:11:59.387Z,4.50
2022-10-23T16:14:26.234Z,4.13
2022-10-23T16:16:57.873Z,4.67
2022-10-23T16:19:27.177Z,4.60
2022-10-23T16:22:01.085Z,3.97
2022-10-23T16:24:27.944Z,4.30
2022-10-23T16:26:57.461Z,4.27
2022-10-23T16:29:25.838Z,4.23
2022-10-23T16:31:54.192Z,4.13
2022-10-23T16:34:23.735Z,4.93
2022-10-23T16:36:53.089Z,4.83
2022-10-23T16:39:20.679Z,4.17
2022-10-23T16:41:53.074Z,4.87
2022-10-23T16:44:22.896Z,4.43
2022-10-23T16:46:54.414Z,3.60
2022-10-23T16:49:21.229Z,4.33
2022-10-23T16:51:48.074Z,4.20
2022-10-23T16:54:17.943Z,4.03
2022-10-23T16:56:48.368Z,4.43
2022-10-23T16:59:15.510Z,4.37
2022-10-23T17:01:42.521Z,4.13
2022-10-23T17:04:09.522Z,4.60
2022-10-23T17:06:36.934Z,4.00
2022-10-23T17:09:08.549Z,4.77
2022-10-23T17:11:39.550Z,3.70
2022-10-23T17:14:15.904Z,4.53
2022-10-23T17:16:46.993Z,4.87
2022-10-23T17:19:44.677Z,6.70
2022-10-23T17:22:10.685Z,5.07
2022-10-23T17:24:42.259Z,4.77
2022-10-23T17:27:11.715Z,3.90
2022-10-23T17:29:40.930Z,3.73
2022-10-23T17:32:10.150Z,4.27
2022-10-23T17:34:37.049Z,5.10
2022-10-23T17:37:04.004Z,5.40
2022-10-23T17:39:33.172Z,4.70
2022-10-23T17:42:00.024Z,4.13
2022-10-23T17:44:26.910Z,4.20
2022-10-23T17:46:55.063Z,4.13
2022-10-23T17:49:25.930Z,4.10
2022-10-23T17:51:56.402Z,4.20
2022-10-23T17:54:25.689Z,4.37
2022-10-23T17:56:55.436Z,5.27
2022-10-23T17:59:27.428Z,4.37
2022-10-23T18:02:00.065Z,4.17
2022-10-23T18:04:26.988Z,4.57
2022-10-23T18:06:56.373Z,4.37
2022-10-23T18:09:24.105Z,4.20
2022-10-23T18:11:51.770Z,4.90
2022-10-23T18:14:25.144Z,4.70
2022-10-23T18:16:56.903Z,4.87
2022-10-23T18:19:23.758Z,4.20
2022-10-23T18:21:50.664Z,4.70
2022-10-23T18:24:18.471Z,4.57
2022-10-23T18:26:48.374Z,3.60
2022-10-23T18:29:20.713Z,4.17
2022-10-23T18:31:50.728Z,3.90
2022-10-23T18:34:26.878Z,4.10
2022-10-23T18:36:57.056Z,4.27
2022-10-23T18:39:27.209Z,4.50
2022-10-23T18:41:57.670Z,4.10
2022-10-23T18:44:29.190Z,4.37
2022-10-23T18:47:00.900Z,4.23
2022-10-23T18:49:30.594Z,4.70
2022-10-23T18:51:58.526Z,4.40
2022-10-23T18:54:27.678Z,3.93
2022-10-23T18:56:59.127Z,3.80
2022-10-23T18:59:28.484Z,3.80
2022-10-23T19:01:55.585Z,4.63
2022-10-23T19:04:22.589Z,5.73
2022-10-23T19:06:50.666Z,4.97
2022-10-23T19:09:20.503Z,5.43
2022-10-23T19:11:52.168Z,4.47
2022-10-23T19:14:19.039Z,4.20
2022-10-23T19:16:45.795Z,5.53
2022-10-23T19:19:26.704Z,4.97
2022-10-23T19:21:54.680Z,4.40
2022-10-23T19:24:57.092Z,5.50
2022-10-23T19:27:26.047Z,4.63
2022-10-23T19:29:54.502Z,5.60
2022-10-23T19:32:23.614Z,4.67
2022-10-23T19:34:50.490Z,4.60
2022-10-23T19:37:19.854Z,5.20
2022-10-23T19:39:46.749Z,5.23
2022-10-23T19:42:15.710Z,5.50
2022-10-23T19:44:45.044Z,4.73
2022-10-23T19:47:14.890Z,6.23
2022-10-23T19:49:41.710Z,5.60
2022-10-23T19:52:11.084Z,5.43
2022-10-23T19:54:41.519Z,5.30
2022-10-23T19:57:08.389Z,5.00
2022-10-23T19:59:35.233Z,5.17
2022-10-23T20:02:04.847Z,5.13
2022-10-23T20:04:31.915Z,4.80
2022-10-23T20:06:58.811Z,4.13
2022-10-23T20:09:28.178Z,5.10
2022-10-23T20:11:58.123Z,4.83
2022-10-23T20:14:24.930Z,4.90
2022-10-23T20:16:55.673Z,5.00
2022-10-23T20:19:22.919Z,5.00
2022-10-23T20:21:50.322Z,5.33
2022-10-23T20:24:19.598Z,4.83
2022-10-23T20:26:50.748Z,5.23
2022-10-23T20:29:21.029Z,4.73
2022-10-23T20:31:48.654Z,5.57
2022-10-23T20:34:15.477Z,4.80
2022-10-23T20:36:48.040Z,4.70
2022-10-23T20:39:19.419Z,5.43
2022-10-23T20:41:46.663Z,4.47
2022-10-23T20:46:49.137Z,4.20
2022-10-23T20:49:22.129Z,4.83
2022-10-23T20:51:55.639Z,4.10
2022-10-23T20:54:29.048Z,3.80
2022-10-23T20:56:57.049Z,3.93
2022-10-23T20:59:26.505Z,4.13
2022-10-23T21:01:57.298Z,3.97
2022-10-23T21:04:27.553Z,4.27
2022-10-23T21:07:09.961Z,3.40
2022-10-23T21:09:39.992Z,3.40
2022-10-23T21:12:08.186Z,3.20
2022-10-23T21:14:36.226Z,3.20
2022-10-23T21:17:03.132Z,3.23
2022-10-23T21:19:29.964Z,3.50
2022-10-23T21:21:57.333Z,3.80
2022-10-23T21:24:24.594Z,3.70
2022-10-23T21:26:55.916Z,3.93
2022-10-23T21:29:22.713Z,3.57
2022-10-23T21:31:59.339Z,3.40
2022-10-23T21:34:29.914Z,3.50
2022-10-23T21:37:17.893Z,2.90
2022-10-23T21:39:48.158Z,3.03
2022-10-23T21:42:17.711Z,3.50
2022-10-23T21:44:44.697Z,3.50
2022-10-23T21:47:16.854Z,3.50
2022-10-23T21:49:46.086Z,3.80
2022-10-23T21:52:15.043Z,4.17
2022-10-23T21:54:50.966Z,3.70
2022-10-23T21:57:17.772Z,3.40
2022-10-23T21:59:44.615Z,3.67
2022-10-23T22:02:14.717Z,5.43
2022-10-23T22:04:44.332Z,4.20
2022-10-23T22:07:14.898Z,5.03
2022-10-23T22:09:42.615Z,3.50
2022-10-23T22:12:12.549Z,3.80
2022-10-23T22:14:42.519Z,3.10
2022-10-23T22:17:09.376Z,4.13
2022-10-23T22:19:36.190Z,2.93
2022-10-23T22:22:05.540Z,3.70
2022-10-23T22:24:35.314Z,4.17
2022-10-23T22:27:02.128Z,4.23
2022-10-23T22:29:29.864Z,4.30
2022-10-23T22:31:57.674Z,4.27
2022-10-23T22:37:23.358Z,4.00
2022-10-23T22:39:52.021Z,3.77
2022-10-23T22:42:22.564Z,4.33
2022-10-23T22:44:51.438Z,4.10
2022-10-23T22:47:20.651Z,4.17
2022-10-23T22:49:52.093Z,3.87
2022-10-23T22:52:18.878Z,4.17
2022-10-23T22:54:45.800Z,4.37
2022-10-23T22:57:12.669Z,4.30
2022-10-23T22:59:39.544Z,4.77
2022-10-23T23:02:06.388Z,4.83
2022-10-23T23:04:38.354Z,3.80
2022-10-23T23:07:11.636Z,4.80
2022-10-23T23:09:41.451Z,4.47
2022-10-23T23:12:10.863Z,3.63
2022-10-23T23:14:38.002Z,4.37
2022-10-23T23:17:05.992Z,4.03
2022-10-23T23:19:33.102Z,4.80
2022-10-23T23:22:02.920Z,4.23
2022-10-23T23:24:34.806Z,4.50
2022-10-23T23:27:01.643Z,5.00
2022-10-23T23:29:31.552Z,4.67
2022-10-23T23:32:06.023Z,4.53
2022-10-23T23:34:35.003Z,4.37
2022-10-23T23:37:04.823Z,4.03
2022-10-23T23:39:31.676Z,4.30
2022-10-23T23:41:58.512Z,4.30
2022-10-23T23:44:25.484Z,4.47
2022-10-23T23:46:55.917Z,5.20
2022-10-23T23:49:26.369Z,4.80
2022-10-23T23:51:53.287Z,4.53
2022-10-23T23:54:20.121Z,4.33
2022-10-23T23:56:47.041Z,5.07
2022-10-23T23:59:13.953Z,4.90
